Detall de PIREP

Printer-friendly versionPDF version

[2009/10/03 14:50:00]
Flight IATA:CT1006
Pilot Number:026
Company ICAO:CAT
Aircraft Type:B75F/E
PAX:0
Departing Airport: LICJ
Destination Airport: LTBA
Alternate Airport:LTAC
Online: VATSIM
Route:ROSAS UM152 CDC UL869 KRK UM600 TSL UM603 EKI
Flight Level:FL310
No Slew and time accel
No pause
Crash detect
Detect pilot in Cockpit between each 30 and 45 minutes
14:50 Zero fuel Weight: 227981 Lbs, Fuel Weight: 28298 Lbs
14:50 VATSIM:LICJ 031350Z 28008KT 9999 FEW020TCU 24/19 Q1014 RMK VIS MIN 9999
14:50 VATSIM:LTBA 031420Z 09004KT 070V130 9999 SCT035 BKN100 26/09 Q1012 NOSIG
14:50 VOICE CATALONIAN / ALMOGAVERS ROUTE
15:09 Parking Brakes off
15:16 Take-off
15:16 Take off Weight: 254887 Lbs
15:16 Wind: 289º @ 010 Knots Heading: 249º
15:16 POS N38º 10´ 42´´ E013º 05´ 56´´
15:16 Flaps:4 at 175 Knots
15:16 Gear Up: 177 Knots
15:16 Flaps:3 at 162 Knots
15:17 Flaps:2 at 228
Knots
15:18 Flaps:1 at 223 Knots
15:18 Flaps:0 at 259 Knots
15:31 Wind:324º@019 Knots Heading: 090º Ground Speed: 439 Knots Altitude 30255 ft
15:32 TOC
15:32 Fuel Weight: 21833 Lb
15:46 Wind:005º@023 Knots Heading: 064º Ground Speed: 469 Knots Altitude 30964 ft
16:01 Wind:291º@044 Knots Heading: 076º Ground Speed: 509 Knots Altitude 30905 ft
16:16 Wind:328º@059 Knots Heading: 058º Ground Speed: 459 Knots Altitude 30935 ft
16:31 Wind:245º@003 Knots Heading: 080º Ground Speed: 451 Knots Altitude 30866 ft
16:45 TOD
16:45 Fuel Weight: 10742 Lb
16:46 Wind:165º@019 Knots Heading: 087º Ground Speed: 457 Knots Altitude 29750 ft
17:01 Wind:043º@007 Knots Heading: 042º Ground Speed: 263 Knots Altitude 4980 ft
17:06 Gear Down: 182 Knots
17:06 Flaps:1 at 182 Knots
17:06 Flaps:2 at 184 Knots
17:06 Flaps:3 at 214 Knots
17:07 Flaps:2 at 220 Knots
17:07 Gear Up: 190 Knots

17:07 Flaps:1 at 193 Knots
17:09 Flaps:0 at 219 Knots
17:16 Wind:083º@003 Knots Heading: 335º Ground Speed: 250 Knots Altitude 4980 ft
17:23 Gear Down: 181 Knots
17:23 Flaps:1 at 181 Knots
17:23 Flaps:2 at 181 Knots
17:24 Flaps:3 at 170 Knots
17:24 Flaps:4 at 174 Knots
17:25 Flaps:5 at 177 Knots
17:25 TouchDown:Rate -193 ft/min Speed: 159 Knots
17:25 VATSIM:LTBA 031650Z VRB06KT 9999 SCT035 BKN100 26/11 Q1012 NOSIG
17:25 Land
17:25 Wind:014º@004 Knots
17:25 Heading: 165º
17:25 Flight Duration: 02:09
17:25 Landing Weight: 234433 Lbs
17:25 POS N40º 58´ 51´´ E028º 48´ 32´´
17:29 Parking brakes on
17:29 Block to Block Duration: 02:21
17:29 Final Fuel: 5976 Lbls
17:29 Spent Fuel: 22321 Lbls
17:29 Flight Length: 864 NM
17:29 TOD Land Length: 188 NM

Exportar CSV

Powered by Drupal - Modified by Danger4k